createdAt,value
2023-05-21T00:04:58.039Z,13.53
2023-05-21T00:10:00.964Z,13.42
2023-05-21T00:15:04.531Z,13.31
2023-05-21T00:20:09.098Z,13.21
2023-05-21T00:25:12.066Z,13.10
2023-05-21T00:30:16.248Z,12.99
2023-05-21T00:35:19.678Z,12.89
2023-05-21T00:40:22.615Z,12.81
2023-05-21T00:45:25.605Z,12.71
2023-05-21T00:50:30.468Z,12.63
2023-05-21T00:55:34.935Z,12.52
2023-05-21T01:00:37.981Z,12.40
2023-05-21T01:05:41.062Z,12.26
2023-05-21T01:10:44.511Z,12.16
2023-05-21T01:15:47.313Z,12.05
2023-05-21T01:20:50.480Z,11.95
2023-05-21T01:25:53.289Z,11.87
2023-05-21T01:30:56.072Z,11.76
2023-05-21T01:36:34.560Z,11.62
2023-05-21T01:41:38.878Z,11.48
2023-05-21T01:46:41.838Z,11.39
2023-05-21T01:51:44.756Z,11.31
2023-05-21T01:56:49.762Z,11.21
2023-05-21T02:01:52.756Z,11.12
2023-05-21T02:06:55.641Z,11.03
2023-05-21T02:11:58.554Z,10.95
2023-05-21T02:17:01.340Z,10.92
2023-05-21T02:22:04.394Z,10.85
2023-05-21T02:27:07.174Z,10.80
2023-05-21T02:32:09.932Z,10.80
2023-05-21T02:37:12.695Z,10.78
2023-05-21T02:42:15.734Z,10.72
2023-05-21T02:47:19.639Z,10.68
2023-05-21T02:52:22.683Z,10.66
2023-05-21T02:57:25.766Z,10.63
2023-05-21T03:02:28.833Z,10.61
2023-05-21T03:07:32.537Z,10.59
2023-05-21T03:12:35.351Z,10.57
2023-05-21T03:17:38.258Z,10.57
2023-05-21T03:22:42.074Z,10.61
2023-05-21T03:27:44.864Z,10.65
2023-05-21T03:32:47.855Z,10.72
2023-05-21T03:37:50.806Z,10.82
2023-05-21T03:42:54.528Z,10.92
2023-05-21T03:47:57.491Z,11.00
2023-05-21T03:53:00.352Z,11.11
2023-05-21T03:58:03.350Z,11.21
2023-05-21T04:03:07.283Z,11.30
2023-05-21T04:08:10.727Z,11.40
2023-05-21T04:13:13.573Z,11.55
2023-05-21T04:18:17.279Z,11.70
2023-05-21T04:23:20.155Z,11.86
2023-05-21T04:28:24.261Z,12.02
2023-05-21T04:33:27.219Z,12.22
2023-05-21T04:38:30.363Z,12.41
2023-05-21T04:43:33.306Z,12.60
2023-05-21T04:48:36.212Z,12.78
2023-05-21T04:53:39.024Z,12.98
2023-05-21T04:58:41.899Z,13.20
2023-05-21T05:03:45.848Z,13.42
2023-05-21T05:08:49.330Z,13.63
2023-05-21T05:13:52.659Z,13.81
2023-05-21T05:18:55.979Z,14.00
2023-05-21T05:23:59.018Z,14.18
2023-05-21T05:29:01.800Z,14.35
2023-05-21T05:34:04.847Z,14.51
2023-05-21T05:39:07.815Z,14.67
2023-05-21T05:44:11.051Z,14.87
2023-05-21T05:49:14.100Z,15.05
2023-05-21T05:54:16.945Z,15.21
2023-05-21T05:59:19.871Z,15.37
2023-05-21T06:04:22.650Z,15.58
2023-05-21T06:09:25.474Z,15.77
2023-05-21T06:14:28.307Z,15.96
2023-05-21T06:19:31.142Z,16.15
2023-05-21T06:24:34.100Z,16.33
2023-05-21T06:29:36.940Z,16.52
2023-05-21T06:34:39.871Z,16.67
2023-05-21T06:39:42.722Z,16.85
2023-05-21T06:44:45.489Z,17.07
2023-05-21T06:49:48.426Z,17.26
2023-05-21T06:54:51.252Z,17.42
2023-05-21T06:59:54.054Z,17.55
2023-05-21T07:04:56.919Z,17.71
2023-05-21T07:09:59.738Z,17.84
2023-05-21T07:15:04.633Z,17.98
2023-05-21T07:20:09.644Z,18.15
2023-05-21T07:25:12.567Z,18.33
2023-05-21T07:30:15.905Z,18.58
2023-05-21T07:35:19.179Z,18.73
2023-05-21T07:40:22.177Z,18.86
2023-05-21T07:45:25.062Z,19.03
2023-05-21T07:50:28.020Z,19.16
2023-05-21T07:55:31.100Z,19.34
2023-05-21T08:00:42.641Z,19.50
2023-05-21T08:05:48.619Z,19.71
2023-05-21T08:10:51.535Z,19.92
2023-05-21T08:15:54.441Z,20.10
2023-05-21T08:20:57.312Z,20.24
2023-05-21T08:26:00.127Z,20.43
2023-05-21T08:31:03.033Z,20.57
2023-05-21T08:36:06.914Z,20.71
2023-05-21T08:41:11.613Z,20.86
2023-05-21T08:46:14.457Z,21.05
2023-05-21T08:51:17.461Z,21.19
2023-05-21T08:56:20.286Z,21.33
2023-05-21T09:01:25.639Z,21.49
2023-05-21T09:06:29.396Z,21.71
2023-05-21T09:11:32.195Z,21.84
2023-05-21T09:16:35.155Z,22.05
2023-05-21T09:21:38.097Z,22.23
2023-05-21T09:26:44.068Z,22.42
2023-05-21T09:31:47.271Z,22.63
2023-05-21T09:36:51.984Z,22.83
2023-05-21T09:41:57.834Z,23.16
2023-05-21T09:47:01.969Z,23.50
2023-05-21T09:52:05.214Z,23.95
2023-05-21T09:57:08.088Z,24.57
2023-05-21T10:02:22.526Z,25.19
2023-05-21T10:07:26.483Z,25.86
2023-05-21T10:12:30.731Z,26.66
2023-05-21T10:17:33.615Z,27.40
2023-05-21T10:22:36.825Z,28.16
2023-05-21T10:27:39.730Z,28.96
2023-05-21T10:32:42.784Z,29.77
2023-05-21T10:37:45.893Z,30.46
2023-05-21T10:43:02.208Z,31.10
2023-05-21T10:48:29.684Z,31.97
2023-05-21T10:54:19.578Z,32.86
2023-05-21T10:59:45.477Z,33.22
2023-05-21T11:04:49.362Z,34.05
2023-05-21T11:09:52.331Z,34.94
2023-05-21T11:14:58.218Z,35.33
2023-05-21T11:20:05.358Z,35.73
2023-05-21T11:25:08.560Z,36.31
2023-05-21T11:30:19.198Z,36.68
2023-05-21T11:35:22.496Z,37.27
2023-05-21T11:40:26.678Z,37.96
2023-05-21T11:45:33.100Z,38.07
2023-05-21T11:50:37.045Z,38.30
2023-05-21T11:55:43.620Z,39.10
2023-05-21T12:00:46.653Z,38.29
2023-05-21T12:05:49.750Z,38.92
2023-05-21T12:10:59.114Z,39.34
2023-05-21T12:16:04.580Z,38.68
2023-05-21T12:21:11.723Z,39.77
2023-05-21T12:26:15.291Z,40.46
2023-05-21T12:31:18.314Z,41.03
2023-05-21T12:36:34.989Z,41.33
2023-05-21T12:41:37.929Z,41.27
2023-05-21T12:46:41.046Z,42.26
2023-05-21T12:51:45.115Z,42.73
2023-05-21T12:56:48.201Z,42.44
2023-05-21T13:01:52.373Z,43.18
2023-05-21T13:06:55.245Z,43.08
2023-05-21T13:11:58.175Z,43.76
2023-05-21T13:17:02.420Z,43.63
2023-05-21T13:22:05.433Z,43.70
2023-05-21T13:27:08.292Z,44.50
2023-05-21T13:32:11.298Z,44.90
2023-05-21T13:37:14.887Z,44.93
2023-05-21T13:42:17.685Z,44.16
2023-05-21T13:47:20.594Z,44.32
2023-05-21T13:52:23.613Z,44.94
2023-05-21T13:57:27.289Z,44.98
2023-05-21T14:02:30.330Z,45.64
2023-05-21T14:07:33.522Z,45.60
2023-05-21T14:12:36.710Z,45.74
2023-05-21T14:17:40.694Z,45.65
2023-05-21T14:22:43.700Z,45.12
2023-05-21T14:27:46.529Z,44.91
2023-05-21T14:32:49.393Z,42.48
2023-05-21T14:37:54.246Z,39.51
2023-05-21T14:42:57.063Z,37.46
2023-05-21T14:48:00.032Z,35.52
2023-05-21T14:53:10.731Z,34.23
2023-05-21T14:58:13.985Z,33.10
2023-05-21T15:03:16.926Z,31.96
2023-05-21T15:08:19.822Z,31.00
2023-05-21T15:13:22.612Z,30.48
2023-05-21T15:18:25.496Z,30.07
2023-05-21T15:23:28.373Z,29.68
2023-05-21T15:28:31.285Z,29.19
2023-05-21T15:33:34.195Z,28.78
2023-05-21T15:38:37.037Z,28.45
2023-05-21T15:43:39.830Z,28.08
2023-05-21T15:48:42.749Z,27.64
2023-05-21T15:53:45.597Z,27.34
2023-05-21T15:58:48.625Z,27.10
2023-05-21T16:03:51.590Z,26.88
2023-05-21T16:08:54.424Z,26.57
2023-05-21T16:13:57.437Z,26.24
2023-05-21T16:19:01.942Z,26.00
2023-05-21T16:24:05.669Z,25.75
2023-05-21T16:29:08.659Z,25.49
2023-05-21T16:34:11.495Z,25.24
2023-05-21T16:39:14.430Z,24.88
2023-05-21T16:44:17.411Z,24.59
2023-05-21T16:49:20.198Z,24.29
2023-05-21T16:54:23.091Z,24.03
2023-05-21T16:59:25.919Z,23.78
2023-05-21T17:04:28.695Z,23.52
2023-05-21T17:09:31.552Z,23.27
2023-05-21T17:14:35.422Z,23.03
2023-05-21T17:19:39.738Z,22.77
2023-05-21T17:24:42.681Z,22.52
2023-05-21T17:29:46.018Z,22.26
2023-05-21T17:34:48.799Z,21.98
2023-05-21T17:39:52.762Z,21.71
2023-05-21T17:44:56.396Z,21.46
2023-05-21T17:49:59.359Z,21.19
2023-05-21T17:55:02.234Z,20.97
2023-05-21T18:00:07.027Z,20.69
2023-05-21T18:05:10.433Z,20.41
2023-05-21T18:10:15.374Z,20.13
2023-05-21T18:15:18.360Z,19.85
2023-05-21T18:20:21.244Z,19.60
2023-05-21T18:25:24.101Z,19.41
2023-05-21T18:30:27.041Z,19.19
2023-05-21T18:35:31.141Z,18.96
2023-05-21T18:40:33.960Z,18.73
2023-05-21T18:45:36.906Z,18.49
2023-05-21T18:50:39.834Z,18.22
2023-05-21T18:55:42.765Z,17.98
2023-05-21T19:00:45.778Z,17.70
2023-05-21T19:05:48.715Z,17.47
2023-05-21T19:10:53.522Z,17.22
2023-05-21T19:15:58.648Z,16.99
2023-05-21T19:21:03.211Z,16.76
2023-05-21T19:26:06.155Z,16.56
2023-05-21T19:31:09.735Z,16.36
2023-05-21T19:36:13.323Z,16.19
2023-05-21T19:41:22.071Z,15.98
2023-05-21T19:46:25.725Z,15.81
2023-05-21T19:51:28.721Z,15.60
2023-05-21T19:56:32.015Z,15.38
2023-05-21T20:01:39.519Z,15.19
2023-05-21T20:06:42.637Z,15.02
2023-05-21T20:11:45.506Z,14.87
2023-05-21T20:16:48.447Z,14.75
2023-05-21T20:21:51.548Z,14.62
2023-05-21T20:26:55.115Z,14.53
2023-05-21T20:31:58.124Z,14.40
2023-05-21T20:37:02.433Z,14.28
2023-05-21T20:42:10.589Z,14.16
2023-05-21T20:47:13.896Z,14.07
2023-05-21T20:52:16.681Z,13.97
2023-05-21T20:57:19.707Z,13.86
2023-05-21T21:02:23.143Z,13.75
2023-05-21T21:07:26.120Z,13.66
2023-05-21T21:12:29.041Z,13.54
2023-05-21T21:17:31.879Z,13.41
2023-05-21T21:22:34.812Z,13.27
2023-05-21T21:27:37.707Z,13.17
2023-05-21T21:32:41.242Z,13.10
2023-05-21T21:37:44.049Z,13.02
2023-05-21T21:42:46.906Z,12.93
2023-05-21T21:47:49.815Z,12.83
2023-05-21T21:52:56.000Z,12.73
2023-05-21T21:57:59.080Z,12.63
2023-05-21T22:03:02.158Z,12.57
2023-05-21T22:08:05.559Z,12.52
2023-05-21T22:13:08.450Z,12.44
2023-05-21T22:18:12.334Z,12.34
2023-05-21T22:23:15.440Z,12.24
2023-05-21T22:28:18.344Z,12.17
2023-05-21T22:33:21.400Z,12.09
2023-05-21T22:38:25.107Z,12.02
2023-05-21T22:43:28.065Z,11.95
2023-05-21T22:48:31.133Z,11.87
2023-05-21T22:53:34.019Z,11.78
2023-05-21T22:58:36.890Z,11.69
2023-05-21T23:03:39.792Z,11.62
2023-05-21T23:08:42.700Z,11.55
2023-05-21T23:13:45.536Z,11.45
2023-05-21T23:18:50.090Z,11.37
2023-05-21T23:23:53.020Z,11.31
2023-05-21T23:28:55.796Z,11.23
2023-05-21T23:33:58.579Z,11.17
2023-05-21T23:39:01.900Z,11.11
2023-05-21T23:44:04.836Z,11.07
2023-05-21T23:49:07.799Z,11.00
2023-05-21T23:54:10.639Z,10.94
2023-05-21T23:59:14.628Z,10.89
